createdAt,value
2023-04-30T00:00:25.465Z,8.33
2023-04-30T00:02:52.763Z,8.10
2023-04-30T00:05:19.809Z,8.31
2023-04-30T00:07:46.539Z,8.32
2023-04-30T00:10:13.243Z,8.31
2023-04-30T00:12:40.158Z,8.27
2023-04-30T00:15:14.705Z,8.24
2023-04-30T00:17:41.718Z,8.24
2023-04-30T00:20:14.540Z,8.21
2023-04-30T00:22:41.587Z,8.13
2023-04-30T00:25:09.468Z,8.07
2023-04-30T00:27:36.090Z,8.11
2023-04-30T00:30:03.112Z,8.05
2023-04-30T00:32:32.141Z,8.05
2023-04-30T00:34:58.947Z,7.99
2023-04-30T00:37:25.671Z,7.99
2023-04-30T00:39:52.845Z,7.97
2023-04-30T00:42:21.892Z,7.92
2023-04-30T00:44:51.023Z,7.95
2023-04-30T00:47:20.249Z,7.86
2023-04-30T00:49:49.540Z,7.85
2023-04-30T00:52:16.320Z,7.79
2023-04-30T00:54:43.282Z,7.84
2023-04-30T00:57:15.429Z,7.82
2023-04-30T00:59:47.339Z,7.63
2023-04-30T01:02:17.742Z,7.74
2023-04-30T01:04:44.738Z,7.73
2023-04-30T01:07:12.781Z,7.66
2023-04-30T01:09:41.980Z,7.67
2023-04-30T01:13:04.300Z,7.50
2023-04-30T01:15:58.670Z,7.55
2023-04-30T01:18:28.511Z,7.54
2023-04-30T01:21:08.266Z,7.52
2023-04-30T01:23:59.415Z,7.48
2023-04-30T01:26:59.738Z,7.44
2023-04-30T01:29:27.797Z,7.43
2023-04-30T01:31:54.702Z,7.35
2023-04-30T01:34:23.605Z,7.35
2023-04-30T01:36:54.710Z,7.18
2023-04-30T01:39:48.633Z,7.27
2023-04-30T01:42:28.549Z,7.24
2023-04-30T01:45:13.778Z,7.21
2023-04-30T01:47:50.386Z,7.17
2023-04-30T01:50:42.435Z,7.17
2023-04-30T01:53:14.116Z,7.05
2023-04-30T01:55:50.080Z,7.15
2023-04-30T01:58:17.128Z,7.03
2023-04-30T02:00:43.925Z,7.07
2023-04-30T02:03:10.886Z,7.13
2023-04-30T02:05:41.360Z,6.99
2023-04-30T02:08:08.285Z,7.01
2023-04-30T02:10:34.968Z,7.05
2023-04-30T02:13:03.833Z,7.02
2023-04-30T02:15:30.681Z,6.93
2023-04-30T02:17:57.535Z,6.97
2023-04-30T02:20:26.622Z,6.97
2023-04-30T02:22:53.297Z,6.98
2023-04-30T02:25:20.076Z,6.90
2023-04-30T02:27:46.826Z,6.96
2023-04-30T02:30:13.467Z,6.93
2023-04-30T02:32:40.335Z,6.94
2023-04-30T02:35:07.314Z,6.92
2023-04-30T02:37:33.997Z,6.91
2023-04-30T02:40:03.167Z,6.77
2023-04-30T02:42:29.904Z,6.72
2023-04-30T02:44:56.825Z,6.82
2023-04-30T02:47:27.958Z,6.77
2023-04-30T02:49:57.080Z,6.75
2023-04-30T02:52:24.152Z,6.74
2023-04-30T02:54:50.944Z,6.72
2023-04-30T02:57:19.868Z,6.61
2023-04-30T02:59:46.646Z,6.65
2023-04-30T03:02:13.822Z,6.64
2023-04-30T03:04:42.798Z,6.58
2023-04-30T03:07:09.544Z,6.54
2023-04-30T03:09:38.734Z,6.48
2023-04-30T03:12:05.918Z,6.49
2023-04-30T03:14:34.829Z,6.50
2023-04-30T03:17:01.459Z,6.55
2023-04-30T03:19:28.138Z,6.53
2023-04-30T03:21:55.241Z,6.47
2023-04-30T03:24:21.993Z,6.32
2023-04-30T03:26:48.868Z,6.40
2023-04-30T03:29:17.732Z,6.24
2023-04-30T03:31:44.481Z,6.38
2023-04-30T03:34:14.263Z,6.34
2023-04-30T03:36:41.146Z,6.25
2023-04-30T03:39:09.943Z,6.32
2023-04-30T03:41:39.065Z,6.24
2023-04-30T03:44:06.235Z,6.31
2023-04-30T03:46:33.046Z,6.13
2023-04-30T03:48:59.750Z,6.25
2023-04-30T03:51:28.321Z,6.21
2023-04-30T03:53:55.005Z,6.17
2023-04-30T03:56:22.046Z,6.22
2023-04-30T03:58:51.241Z,6.20
2023-04-30T04:01:20.752Z,6.07
2023-04-30T04:03:47.451Z,6.19
2023-04-30T04:06:14.145Z,6.18
2023-04-30T04:08:43.507Z,6.03
2023-04-30T04:11:13.560Z,6.17
2023-04-30T04:13:40.173Z,6.15
2023-04-30T04:16:08.796Z,6.15
2023-04-30T04:18:35.606Z,6.13
2023-04-30T04:21:04.598Z,6.13
2023-04-30T04:23:33.366Z,6.14
2023-04-30T04:26:00.392Z,6.09
2023-04-30T04:28:27.407Z,6.11
2023-04-30T04:30:54.052Z,6.23
2023-04-30T04:33:20.748Z,6.29
2023-04-30T04:35:49.708Z,6.30
2023-04-30T04:38:16.475Z,6.29
2023-04-30T04:40:51.480Z,5.53
2023-04-30T04:43:20.928Z,6.42
2023-04-30T04:45:48.180Z,6.62
2023-04-30T04:48:15.291Z,6.84
2023-04-30T04:50:45.789Z,7.25
2023-04-30T04:53:13.406Z,8.71
2023-04-30T04:55:40.121Z,10.29
2023-04-30T04:58:09.509Z,11.66
2023-04-30T05:00:36.120Z,12.57
2023-04-30T05:03:02.824Z,13.72
2023-04-30T05:05:29.918Z,14.84
2023-04-30T05:07:59.039Z,15.92
2023-04-30T05:10:25.704Z,16.68
2023-04-30T05:12:52.399Z,17.21
2023-04-30T05:15:19.174Z,17.64
2023-04-30T05:17:48.557Z,18.16
2023-04-30T05:20:15.529Z,19.07
2023-04-30T05:22:42.300Z,19.82
2023-04-30T05:25:09.532Z,20.60
2023-04-30T05:27:36.598Z,21.15
2023-04-30T05:30:03.407Z,21.10
2023-04-30T05:32:30.273Z,20.86
2023-04-30T05:34:57.168Z,20.76
2023-04-30T05:37:23.898Z,20.38
2023-04-30T05:39:55.952Z,20.25
2023-04-30T05:42:22.723Z,20.39
2023-04-30T05:44:51.815Z,20.13
2023-04-30T05:47:21.232Z,20.51
2023-04-30T05:49:50.367Z,20.91
2023-04-30T05:52:17.827Z,20.96
2023-04-30T05:54:44.985Z,21.07
2023-04-30T05:57:11.830Z,21.46
2023-04-30T05:59:38.624Z,22.01
2023-04-30T06:02:05.523Z,21.74
2023-04-30T06:04:32.323Z,22.07
2023-04-30T06:06:59.315Z,22.14
2023-04-30T06:09:27.486Z,22.09
2023-04-30T06:11:57.059Z,22.37
2023-04-30T06:14:24.272Z,23.37
2023-04-30T06:16:51.388Z,24.09
2023-04-30T06:19:27.476Z,23.75
2023-04-30T06:21:54.373Z,23.43
2023-04-30T06:24:21.475Z,23.86
2023-04-30T06:26:59.721Z,23.68
2023-04-30T06:29:26.659Z,23.81
2023-04-30T06:31:53.715Z,24.08
2023-04-30T06:34:21.252Z,24.03
2023-04-30T06:36:48.176Z,23.82
2023-04-30T06:39:16.458Z,24.51
2023-04-30T06:41:47.613Z,25.38
2023-04-30T06:44:17.324Z,25.21
2023-04-30T06:46:44.281Z,25.17
2023-04-30T06:49:11.282Z,25.76
2023-04-30T06:51:38.384Z,26.32
2023-04-30T06:54:09.473Z,26.41
2023-04-30T06:56:36.358Z,27.41
2023-04-30T06:59:03.911Z,27.89
2023-04-30T07:01:31.116Z,27.97
2023-04-30T07:03:58.051Z,28.56
2023-04-30T07:06:28.632Z,28.99
2023-04-30T07:09:00.801Z,28.34
2023-04-30T07:11:27.779Z,29.01
2023-04-30T07:13:54.617Z,29.13
2023-04-30T07:16:25.289Z,28.35
2023-04-30T07:18:54.367Z,29.07
2023-04-30T07:21:25.653Z,29.69
2023-04-30T07:23:52.775Z,29.33
2023-04-30T07:26:25.119Z,29.34
2023-04-30T07:28:54.515Z,29.82
2023-04-30T07:31:23.429Z,29.64
2023-04-30T07:33:52.448Z,30.24
2023-04-30T07:36:19.050Z,30.80
2023-04-30T07:38:45.694Z,31.10
2023-04-30T07:41:17.428Z,28.76
2023-04-30T07:43:44.060Z,28.51
2023-04-30T07:46:10.674Z,29.65
2023-04-30T07:48:40.440Z,30.43
2023-04-30T07:51:07.052Z,29.44
2023-04-30T07:53:33.676Z,29.31
2023-04-30T07:56:00.467Z,30.19
2023-04-30T07:58:27.068Z,30.62
2023-04-30T08:00:56.172Z,29.68
2023-04-30T08:03:22.842Z,29.26
2023-04-30T08:05:49.570Z,28.59
2023-04-30T08:08:16.188Z,27.02
2023-04-30T08:10:44.995Z,27.03
2023-04-30T08:13:11.617Z,27.08
2023-04-30T08:15:40.065Z,26.79
2023-04-30T08:18:06.681Z,26.16
2023-04-30T08:20:33.434Z,25.52
2023-04-30T08:23:00.054Z,25.17
2023-04-30T08:25:26.704Z,25.92
2023-04-30T08:27:55.831Z,26.14
2023-04-30T08:30:26.992Z,25.50
2023-04-30T08:32:55.933Z,24.69
2023-04-30T08:35:23.503Z,24.58
2023-04-30T08:37:53.500Z,24.30
2023-04-30T08:40:21.006Z,23.72
2023-04-30T08:43:04.907Z,23.64
2023-04-30T08:45:41.477Z,23.48
2023-04-30T08:48:14.076Z,23.77
2023-04-30T08:50:43.006Z,24.39
2023-04-30T08:53:11.117Z,24.52
2023-04-30T08:55:42.610Z,25.39
2023-04-30T08:58:10.673Z,25.50
2023-04-30T09:00:38.696Z,24.61
2023-04-30T09:03:06.334Z,24.22
2023-04-30T09:05:38.737Z,24.22
2023-04-30T09:08:11.580Z,23.97
2023-04-30T09:10:38.428Z,22.99
2023-04-30T09:13:09.389Z,23.20
2023-04-30T09:15:39.052Z,23.50
2023-04-30T09:18:16.342Z,23.00
2023-04-30T09:21:03.388Z,22.73
2023-04-30T09:23:30.772Z,22.81
2023-04-30T09:26:02.192Z,22.27
2023-04-30T09:28:33.853Z,21.82
2023-04-30T09:31:03.272Z,22.18
2023-04-30T09:33:46.622Z,22.20
2023-04-30T09:36:13.719Z,22.03
2023-04-30T09:38:40.765Z,21.86
2023-04-30T09:41:29.601Z,21.61
2023-04-30T09:43:58.690Z,21.25
2023-04-30T09:46:33.297Z,21.13
2023-04-30T09:49:01.739Z,20.95
2023-04-30T09:51:31.767Z,20.80
2023-04-30T09:54:02.066Z,20.88
2023-04-30T09:56:31.421Z,21.03
2023-04-30T09:59:01.919Z,21.11
2023-04-30T10:01:31.267Z,21.01
2023-04-30T10:03:58.505Z,20.79
2023-04-30T10:06:35.413Z,20.26
2023-04-30T10:09:06.042Z,20.08
2023-04-30T10:11:36.135Z,19.97
2023-04-30T10:14:08.694Z,19.82
2023-04-30T10:16:49.300Z,20.01
2023-04-30T10:19:32.355Z,20.37
2023-04-30T10:22:01.123Z,20.08
2023-04-30T10:24:27.887Z,19.91
2023-04-30T10:26:55.208Z,19.83
2023-04-30T10:29:21.748Z,19.73
2023-04-30T10:31:50.441Z,19.57
2023-04-30T10:34:33.214Z,19.87
2023-04-30T10:37:10.752Z,19.96
2023-04-30T10:39:38.872Z,20.07
2023-04-30T10:42:13.273Z,19.69
2023-04-30T10:44:42.679Z,19.64
2023-04-30T10:47:09.585Z,19.59
2023-04-30T10:49:36.411Z,19.93
2023-04-30T10:52:04.634Z,19.93
2023-04-30T10:54:32.056Z,19.82
2023-04-30T10:57:17.796Z,19.82
2023-04-30T11:00:07.974Z,19.89
2023-04-30T11:02:47.384Z,19.90
2023-04-30T11:05:18.889Z,20.03
2023-04-30T11:07:56.740Z,20.52
2023-04-30T11:10:25.356Z,20.81
2023-04-30T11:12:54.629Z,20.35
2023-04-30T11:15:25.761Z,20.17
2023-04-30T11:18:00.197Z,20.25
2023-04-30T11:20:27.077Z,20.41
2023-04-30T11:23:28.196Z,20.19
2023-04-30T11:26:07.285Z,20.32
2023-04-30T11:28:39.705Z,20.45
2023-04-30T11:31:06.509Z,20.32
2023-04-30T11:33:35.047Z,20.13
2023-04-30T11:36:02.440Z,20.13
2023-04-30T11:38:38.874Z,20.51
2023-04-30T11:41:05.611Z,20.77
2023-04-30T11:43:33.797Z,20.49
2023-04-30T11:46:03.679Z,21.58
2023-04-30T11:48:52.800Z,22.11
2023-04-30T11:51:19.414Z,22.53
2023-04-30T11:53:50.730Z,22.32
2023-04-30T11:56:22.550Z,21.77
2023-04-30T11:58:50.215Z,21.90
2023-04-30T12:01:18.053Z,22.00
2023-04-30T12:03:49.678Z,22.18
2023-04-30T12:06:27.559Z,22.12
2023-04-30T12:08:56.193Z,22.59
2023-04-30T12:11:27.117Z,22.88
2023-04-30T12:14:02.813Z,22.69
2023-04-30T12:16:42.869Z,22.72
2023-04-30T12:19:12.639Z,22.37
2023-04-30T12:21:47.419Z,22.24
2023-04-30T12:24:19.316Z,22.32
2023-04-30T12:26:46.705Z,22.02
2023-04-30T12:29:16.379Z,21.65
2023-04-30T12:31:43.715Z,21.61
2023-04-30T12:34:13.690Z,21.39
2023-04-30T12:36:44.813Z,20.99
2023-04-30T12:39:16.211Z,20.46
2023-04-30T12:41:47.644Z,20.61
2023-04-30T12:44:24.830Z,20.42
2023-04-30T12:46:56.229Z,20.60
2023-04-30T12:49:33.760Z,20.49
2023-04-30T12:52:03.195Z,20.47
2023-04-30T12:54:34.630Z,20.49
2023-04-30T12:57:03.276Z,20.57
2023-04-30T12:59:37.536Z,20.74
2023-04-30T13:02:13.580Z,20.94
2023-04-30T13:04:42.101Z,20.93
2023-04-30T13:07:11.343Z,20.74
2023-04-30T13:09:38.445Z,20.77
2023-04-30T13:12:06.261Z,20.48
2023-04-30T13:14:36.318Z,20.39
2023-04-30T13:17:05.944Z,20.19
2023-04-30T13:19:35.283Z,19.80
2023-04-30T13:22:01.982Z,19.58
2023-04-30T13:24:31.396Z,19.97
2023-04-30T13:26:59.276Z,19.93
2023-04-30T13:29:25.952Z,19.87
2023-04-30T13:31:52.703Z,20.05
2023-04-30T13:34:21.816Z,20.16
2023-04-30T13:36:52.124Z,20.27
2023-04-30T13:39:19.717Z,20.44
2023-04-30T13:41:47.910Z,20.61
2023-04-30T13:44:17.114Z,20.72
2023-04-30T13:46:43.899Z,20.74
2023-04-30T13:49:10.491Z,20.71
2023-04-30T13:51:37.390Z,20.73
2023-04-30T13:54:04.112Z,20.81
2023-04-30T13:56:30.691Z,20.75
2023-04-30T13:58:59.490Z,20.49
2023-04-30T14:01:26.315Z,20.46
2023-04-30T14:03:53.134Z,20.21
2023-04-30T14:06:22.429Z,20.00
2023-04-30T14:08:49.024Z,19.99
2023-04-30T14:11:15.735Z,20.09
2023-04-30T14:13:42.505Z,20.25
2023-04-30T14:16:09.180Z,20.48
2023-04-30T14:18:35.816Z,20.67
2023-04-30T14:21:02.476Z,20.71
2023-04-30T14:23:29.328Z,20.73
2023-04-30T14:25:56.515Z,20.49
2023-04-30T14:28:23.136Z,20.38
2023-04-30T14:30:49.826Z,20.26
2023-04-30T14:33:18.598Z,20.19
2023-04-30T14:35:46.334Z,20.30
2023-04-30T14:38:13.765Z,20.14
2023-04-30T14:40:40.579Z,20.14
2023-04-30T14:43:09.377Z,20.09
2023-04-30T14:45:35.987Z,20.11
2023-04-30T14:48:05.696Z,20.18
2023-04-30T14:50:34.884Z,20.19
2023-04-30T14:53:01.708Z,20.22
2023-04-30T14:55:28.372Z,20.28
2023-04-30T14:57:55.168Z,20.46
2023-04-30T15:00:24.003Z,20.32
2023-04-30T15:02:51.079Z,20.28
2023-04-30T15:05:17.708Z,19.85
2023-04-30T15:07:49.007Z,20.23
2023-04-30T15:10:15.617Z,20.18
2023-04-30T15:12:42.369Z,20.11
2023-04-30T15:15:11.746Z,20.21
2023-04-30T15:17:41.458Z,20.06
2023-04-30T15:20:08.819Z,20.03
2023-04-30T15:22:37.652Z,20.06
2023-04-30T15:25:08.010Z,20.13
2023-04-30T15:27:35.133Z,20.13
2023-04-30T15:30:01.715Z,19.70
2023-04-30T15:32:28.339Z,20.16
2023-04-30T15:34:55.232Z,20.09
2023-04-30T15:37:25.963Z,19.86
2023-04-30T15:39:52.809Z,19.44
2023-04-30T15:42:19.662Z,19.59
2023-04-30T15:44:46.368Z,19.53
2023-04-30T15:47:13.060Z,19.51
2023-04-30T15:49:43.563Z,19.63
2023-04-30T15:52:15.107Z,19.69
2023-04-30T15:54:46.362Z,19.67
2023-04-30T15:57:13.361Z,19.80
2023-04-30T15:59:40.082Z,19.82
2023-04-30T16:02:06.726Z,19.78
2023-04-30T16:04:35.636Z,19.94
2023-04-30T16:07:02.254Z,20.13
2023-04-30T16:09:29.101Z,20.22
2023-04-30T16:11:56.297Z,19.84
2023-04-30T16:14:25.358Z,20.00
2023-04-30T16:16:54.424Z,20.00
2023-04-30T16:19:23.433Z,19.71
2023-04-30T16:21:50.120Z,19.84
2023-04-30T16:24:16.696Z,19.73
2023-04-30T16:26:43.295Z,19.68
2023-04-30T16:29:12.463Z,19.61
2023-04-30T16:31:39.226Z,19.49
2023-04-30T16:34:06.351Z,19.38
2023-04-30T16:36:35.308Z,19.24
2023-04-30T16:39:02.064Z,19.31
2023-04-30T16:41:28.752Z,19.42
2023-04-30T16:43:57.745Z,19.10
2023-04-30T16:46:24.347Z,19.55
2023-04-30T16:48:53.217Z,19.61
2023-04-30T16:51:22.218Z,19.49
2023-04-30T16:53:51.250Z,19.33
2023-04-30T16:56:23.304Z,19.31
2023-04-30T16:58:49.969Z,19.41
2023-04-30T17:01:19.307Z,19.14
2023-04-30T17:03:46.397Z,19.14
2023-04-30T17:06:14.353Z,18.94
2023-04-30T17:08:41.217Z,18.88
2023-04-30T17:11:07.873Z,18.72
2023-04-30T17:13:34.488Z,18.78
2023-04-30T17:16:02.175Z,18.68
2023-04-30T17:18:31.989Z,18.68
2023-04-30T17:20:58.607Z,18.63
2023-04-30T17:23:25.709Z,18.57
2023-04-30T17:25:55.607Z,18.49
2023-04-30T17:28:24.595Z,18.45
2023-04-30T17:30:51.361Z,18.35
2023-04-30T17:33:23.324Z,18.17
2023-04-30T17:35:53.181Z,18.21
2023-04-30T17:38:19.753Z,18.15
2023-04-30T17:40:46.360Z,18.04
2023-04-30T17:43:12.920Z,18.12
2023-04-30T17:45:39.489Z,17.73
2023-04-30T17:48:06.072Z,17.90
2023-04-30T17:50:32.683Z,17.93
2023-04-30T17:52:59.261Z,17.86
2023-04-30T17:55:28.253Z,17.78
2023-04-30T17:57:59.392Z,17.71
2023-04-30T18:00:26.319Z,17.62
2023-04-30T18:02:55.267Z,17.63
2023-04-30T18:05:22.412Z,17.54
2023-04-30T18:07:48.994Z,17.49
2023-04-30T18:10:15.631Z,17.45
2023-04-30T18:12:42.454Z,17.42
2023-04-30T18:15:09.377Z,17.34
2023-04-30T18:17:37.519Z,17.22
2023-04-30T18:20:04.824Z,17.23
2023-04-30T18:22:32.052Z,17.13
2023-04-30T18:25:00.397Z,17.10
2023-04-30T18:27:27.575Z,17.00
2023-04-30T18:29:57.989Z,16.95
2023-04-30T18:32:27.433Z,16.81
2023-04-30T18:34:54.247Z,16.79
2023-04-30T18:37:22.223Z,16.69
2023-04-30T18:39:51.767Z,16.69
2023-04-30T18:42:18.488Z,16.60
2023-04-30T18:44:49.130Z,16.51
2023-04-30T18:47:16.484Z,16.47
2023-04-30T18:49:44.243Z,16.30
2023-04-30T18:52:10.882Z,16.34
2023-04-30T18:54:37.952Z,16.25
2023-04-30T18:57:05.174Z,16.21
2023-04-30T18:59:32.034Z,16.13
2023-04-30T19:01:58.747Z,15.97
2023-04-30T19:04:25.351Z,15.90
2023-04-30T19:06:55.688Z,15.72
2023-04-30T19:09:22.455Z,15.73
2023-04-30T19:11:51.375Z,15.73
2023-04-30T19:14:18.040Z,15.72
2023-04-30T19:16:47.388Z,15.68
2023-04-30T19:19:14.059Z,15.27
2023-04-30T19:21:43.780Z,15.56
2023-04-30T19:24:10.420Z,15.44
2023-04-30T19:26:38.039Z,15.47
2023-04-30T19:29:04.775Z,15.33
2023-04-30T19:31:36.250Z,15.30
2023-04-30T19:34:03.792Z,15.30
2023-04-30T19:36:30.305Z,15.25
2023-04-30T19:38:59.336Z,15.18
2023-04-30T19:41:27.205Z,15.18
2023-04-30T19:43:53.774Z,15.09
2023-04-30T19:46:21.158Z,15.08
2023-04-30T19:48:47.902Z,14.91
2023-04-30T19:51:14.769Z,14.99
2023-04-30T19:53:41.473Z,14.93
2023-04-30T19:56:08.646Z,14.88
2023-04-30T19:58:35.396Z,14.83
2023-04-30T20:01:02.128Z,14.84
2023-04-30T20:03:32.107Z,14.78
2023-04-30T20:05:58.821Z,14.77
2023-04-30T20:08:25.475Z,14.75
2023-04-30T20:10:52.224Z,14.68
2023-04-30T20:13:22.685Z,14.67
2023-04-30T20:15:49.341Z,14.49
2023-04-30T20:18:16.230Z,14.50
2023-04-30T20:20:45.764Z,14.52
2023-04-30T20:23:16.854Z,14.50
2023-04-30T20:25:45.425Z,14.47
2023-04-30T20:28:13.486Z,14.40
2023-04-30T20:30:43.006Z,14.29
2023-04-30T20:33:16.368Z,14.35
2023-04-30T20:35:47.348Z,14.17
2023-04-30T20:38:14.745Z,14.16
2023-04-30T20:40:41.599Z,14.11
2023-04-30T20:43:11.253Z,14.13
2023-04-30T20:45:40.736Z,14.02
2023-04-30T20:48:08.877Z,14.03
2023-04-30T20:50:36.661Z,13.98
2023-04-30T20:53:03.415Z,13.93
2023-04-30T20:55:30.371Z,13.89
2023-04-30T20:57:57.086Z,13.87
2023-04-30T21:00:23.806Z,13.86
2023-04-30T21:02:54.021Z,13.71
2023-04-30T21:05:20.871Z,13.56
2023-04-30T21:07:47.484Z,13.81
2023-04-30T21:10:14.154Z,13.61
2023-04-30T21:12:40.944Z,13.76
2023-04-30T21:15:09.213Z,13.65
2023-04-30T21:17:38.360Z,13.63
2023-04-30T21:20:05.396Z,13.67
2023-04-30T21:22:32.489Z,13.53
2023-04-30T21:24:59.190Z,13.56
2023-04-30T21:27:28.107Z,13.26
2023-04-30T21:29:55.077Z,13.47
2023-04-30T21:32:22.109Z,13.31
2023-04-30T21:34:48.916Z,13.36
2023-04-30T21:37:17.392Z,13.35
2023-04-30T21:39:46.433Z,13.32
2023-04-30T21:42:15.726Z,13.18
2023-04-30T21:44:44.690Z,13.23
2023-04-30T21:47:11.344Z,13.22
2023-04-30T21:49:38.146Z,13.14
2023-04-30T21:52:08.210Z,12.57
2023-04-30T21:54:35.026Z,13.14
2023-04-30T21:57:02.695Z,13.06
2023-04-30T21:59:29.527Z,13.02
2023-04-30T22:01:56.631Z,13.00
2023-04-30T22:04:25.406Z,12.80
2023-04-30T22:06:54.672Z,12.95
2023-04-30T22:09:25.120Z,12.85
2023-04-30T22:11:52.125Z,12.64
2023-04-30T22:14:23.974Z,12.42
2023-04-30T22:16:51.306Z,12.70
2023-04-30T22:19:23.075Z,12.72
2023-04-30T22:21:52.299Z,12.69
2023-04-30T22:24:19.340Z,12.62
2023-04-30T22:26:46.384Z,12.38
2023-04-30T22:29:16.422Z,12.39
2023-04-30T22:31:43.822Z,12.53
2023-04-30T22:34:10.976Z,12.39
2023-04-30T22:36:40.853Z,12.00
2023-04-30T22:39:10.118Z,12.41
2023-04-30T22:41:37.361Z,12.34
2023-04-30T22:44:08.166Z,12.35
2023-04-30T22:46:40.532Z,11.93
2023-04-30T22:49:19.996Z,12.15
2023-04-30T22:51:57.036Z,12.25
2023-04-30T22:54:24.336Z,12.00
2023-04-30T22:56:54.509Z,12.21
2023-04-30T22:59:21.655Z,11.81
2023-04-30T23:01:50.966Z,11.96
2023-04-30T23:04:17.762Z,12.09
2023-04-30T23:06:47.255Z,11.85
2023-04-30T23:09:16.358Z,11.84
2023-04-30T23:11:45.874Z,12.05
2023-04-30T23:14:13.293Z,12.00
2023-04-30T23:16:43.222Z,12.06
2023-04-30T23:19:10.747Z,12.07
2023-04-30T23:21:39.834Z,11.35
2023-04-30T23:24:08.981Z,12.06
2023-04-30T23:26:35.856Z,11.95
2023-04-30T23:29:02.943Z,11.89
2023-04-30T23:31:30.504Z,11.77
2023-04-30T23:33:57.423Z,12.05
2023-04-30T23:36:24.328Z,11.87
2023-04-30T23:38:51.750Z,12.10
2023-04-30T23:41:20.944Z,12.10
2023-04-30T23:43:50.281Z,12.09
2023-04-30T23:46:17.356Z,11.85
2023-04-30T23:48:46.947Z,12.00
2023-04-30T23:51:15.932Z,12.06
2023-04-30T23:53:42.817Z,12.12
2023-04-30T23:56:11.860Z,12.12
2023-04-30T23:58:41.299Z,12.09
